Airfield :
LOGIN :

Register | Disclaimer

   EN    FR    IT 

 










Legend :    VFR   Marginal VFR   IFR   Intensive IFR   Very Intensive IFR
Visi :
Ceiling :
>= 8 km
>= 3000ft
5 to 8 km
1000 to 3000 ft
1500m to 5 km
500 to 1000 ft
800 to 1500m
200 to 500 ft
< 800m
< 200 ft
Symbols :   Thunderstorms  Fog  Heavy snow  Heavy precipitations  Wind > 20 kt
SIGMETs :     Misc.  Thunderstorms  Icing  Turbulence  Mountain Waves  Volcanic Ashes







- Airport Elevation : 1545 ft
- IATA code : RAK


GMMX - Menara Int.

CURRENT METAR :
  • 262100Z VRB02KT 3000 TSRA BKN026 SCT033CB 14/13 Q1012 NOSIG

EXPIRED METARs :
  • 262030Z VRB03KT 3000 TSRA BKN026 SCT033CB 14/14 Q1011 NOSIG
  • 262000Z 26003KT 220V280 3000 TSRA BKN026 SCT033CB 14/14 Q1011 NOSIG
  • 261900Z 34007KT 300V020 3000 TSRA BKN026 SCT033CB 15/13 Q1009 NOSIG
  • 261830Z 06011KT 3000 TSRA BKN026 SCT033CB 15/13 Q1009 NOSIG
  • 261812Z 03009KT 350V060 3000 TSRA BKN026 SCT033CB 16/12 Q1009 M2 NOSIG

TAF TAF GMMX
Valid from the 26 at 18:00 until the 28 at 00:00 UTC


261700Z 2618/2724 30012KT 8000 BKN023 SCT30CB
TEMPO 2618/2701 32014G24KT 4000 TSRA
BECMG 2701/2703 SCT023 FEW030TCU SCT090
TEMPO 2715/2721 28016KT 5000 TSRA BKN023 FEW030CB
No reported NOTAMs for that airfield.
2 SIGMETs reported for the Casablanca FIR (GMMM) :
 
Severe turbulence
GMMM SIGMET T5 VALID 262030/270000 GMMC
GMMM CASABLANCA FIR SEV TURB FCST N OF LINE N3509 W00222 - N3531 W00 500 - N3506 W00736 - N3554 W00939 SFC/FL055 STNR NC=
Thunderstorms
GMMM SIGMET A5 VALID 262000/262400 GMMC
GMMM CASABLANCA FIR TS OBS WI N3559 W00629 - N3445 W00252 - N3306 W0 0212 - N2938 W00919 - N3156 W00856 - N3344 W00650 - N3510 W00822 - N 3559 W00629 TOP FL530 STNR NC=



MET'MAP, your aeronautical weather chart ! - Copyright ORBIFLY December 2007 - Disclaimer

ORBIFLY MET'MAP TEAM :

Programming & Development : Alexandra Zaïnal
Concept & Development : Baudouin d'Aumeries
Co-Development & Prog : Marc-Olivier Méhu
Technical & hardware support : Manuel Goepfert

Contact : metmap@orbifly.com




SOURCES & CREDITS :

   NOAA